This is the latest recevied weather packets stored in our database for station/object KD0SBN. If no packets are shown the sender has not sent any weather packets the latest 10 day(s).
| Time | Temp. | Humidity | Pressure | Rain* | Wind** | Luminosity | Snow |
|---|---|---|---|---|---|---|---|
| 1777702196 | 6.67° C | 75% | 1021.1 hPa | 0 mm | - | - | - |
| 1777701892 | 6.11° C | 76% | 1021 hPa | 0 mm | - | - | - |
| 1777701589 | 7.22° C | 73% | 1021 hPa | 0 mm | - | - | - |
| 1777701287 | 7.78° C | 68% | 1021 hPa | 0 mm | - | - | - |
| 1777700986 | 8.33° C | 66% | 1021.1 hPa | 0 mm | - | - | - |
| 1777700684 | 8.89° C | 65% | 1020.8 hPa | 0 mm | - | - | - |
| 1777700381 | 8.89° C | 64% | 1021 hPa | 0 mm | - | - | - |
| 1777700078 | 8.89° C | 65% | 1020.8 hPa | 0 mm | - | - | - |
| 1777699776 | 8.89° C | 63% | 1020.7 hPa | 0 mm | - | - | - |
| 1777699474 | 8.89° C | 65% | 1020.7 hPa | 0 mm | - | - | - |
| 1777699172 | 8.89° C | 66% | 1020.8 hPa | 0 mm | - | - | - |
| 1777698870 | 9.44° C | 64% | 1020.6 hPa | 0 mm | - | - | - |
| 1777698566 | 9.44° C | 64% | 1020.7 hPa | 0 mm | - | - | - |
| 1777698263 | 9.44° C | 63% | 1020.7 hPa | 0 mm | - | - | - |
| 1777697960 | 9.44° C | 63% | 1021 hPa | 0 mm | - | - | - |
| 1777697657 | 9.44° C | 62% | 1020.8 hPa | 0 mm | - | - | - |
| 1777697354 | 9.44° C | 63% | 1020.7 hPa | 0 mm | - | - | - |
| 1777697049 | 9.44° C | 62% | 1020.7 hPa | 0 mm | - | - | - |
| 1777696747 | 9.44° C | 63% | 1020.8 hPa | 0 mm | - | - | - |
| 1777696444 | 10° C | 63% | 1020.8 hPa | 0 mm | - | - | - |
| 1777696144 | 10° C | 61% | 1020.8 hPa | 0 mm | - | - | - |
| 1777695841 | 10.56° C | 60% | 1020.8 hPa | 0 mm | - | - | - |
| 1777695538 | 10° C | 60% | 1020.8 hPa | 0 mm | - | - | - |
| 1777695236 | 9.44° C | 64% | 1021 hPa | 0 mm | - | - | - |
| 1777694933 | 10° C | 62% | 1020.8 hPa | 0 mm | - | - | - |
* Rain latest hour (hover to see other rain measurements)
** Current wind speed in m/s (hover to see current wind gust speed)